This is the latest recevied weather packets stored in our database for station/object K7BYI-WX. If no packets are shown the sender has not sent any weather packets the latest 10 day(s).
| Time | Temp. | Humidity | Pressure | Rain* | Wind** | Luminosity | Snow |
|---|---|---|---|---|---|---|---|
| 1777553656 | 0.56° C | 71% | 1021.4 hPa | 0 mm | - | - | - |
| 1777519423 | 6.67° C | 60% | 1019 hPa | 0 mm | - | - | - |
| 1777510422 | 10° C | 54% | 1017.2 hPa | 0 mm | - | - | - |
| 1777508622 | 11.11° C | 43% | 1016.8 hPa | 0 mm | - | - | - |
| 1777505022 | 11.67° C | 44% | 1016.6 hPa | 0 mm | - | - | - |
| 1777501421 | 13.89° C | 30% | 1016.9 hPa | 0 mm | - | - | - |
| 1777497821 | 11.67° C | 43% | 1017.3 hPa | 0 mm | - | - | - |
| 1777496021 | 10.56° C | 49% | 1017.5 hPa | 0 mm | - | - | - |
| 1777495121 | 10.56° C | 49% | 1017.6 hPa | 0 mm | - | - | - |
| 1777490620 | 13.89° C | 34% | 1017.5 hPa | 0 mm | - | - | - |
| 1777477989 | 10° C | 48% | 1019.1 hPa | 0 mm | - | - | - |
| 1777473489 | 5° C | 65% | 1019.3 hPa | 0 mm | - | - | - |
| 1777472589 | 5° C | 63% | 1019.3 hPa | 0 mm | - | - | - |
| 1777471688 | 5° C | 64% | 1019.3 hPa | 0 mm | - | - | - |
| 1777469888 | 3.89° C | 64% | 1019.2 hPa | 0 mm | - | - | - |
| 1777468088 | 3.33° C | 63% | 1019.2 hPa | 0 mm | - | - | - |
| 1777467188 | 3.89° C | 62% | 1019 hPa | 0 mm | - | - | - |
| 1777464488 | 3.33° C | 64% | 1018.9 hPa | 0 mm | - | - | - |
| 1777463588 | 3.33° C | 64% | 1018.8 hPa | 0 mm | - | - | - |
| 1777462688 | 3.33° C | 64% | 1018.6 hPa | 0 mm | - | - | - |
| 1777460888 | 2.22° C | 69% | 1018.6 hPa | 0 mm | - | - | - |
| 1777458188 | 2.22° C | 71% | 1018.7 hPa | 0 mm | - | - | - |
| 1777435685 | 7.78° C | 40% | 1018.2 hPa | 0 mm | - | - | - |
| 1777429385 | 10° C | 35% | 1017.6 hPa | 0 mm | - | - | - |
| 1777424884 | 10.56° C | 33% | 1017.9 hPa | 0 mm | - | - | - |
* Rain latest hour (hover to see other rain measurements)
** Current wind speed in m/s (hover to see current wind gust speed)